sensor_id;sensor_type;location;lat;lon;timestamp;temperature;humidity
60242;SHT30;46103;52.076;113.488;2023-05-07T00:02:29;11.54;34.41
60242;SHT30;46103;52.076;113.488;2023-05-07T00:05:34;11.36;34.45
60242;SHT30;46103;52.076;113.488;2023-05-07T00:08:39;11.36;34.95
60242;SHT30;46103;52.076;113.488;2023-05-07T00:11:42;11.39;34.91
60242;SHT30;46103;52.076;113.488;2023-05-07T00:14:46;11.41;35.01
60242;SHT30;46103;52.076;113.488;2023-05-07T00:17:50;11.61;34.85
60242;SHT30;46103;52.076;113.488;2023-05-07T00:20:54;11.59;35.01
60242;SHT30;46103;52.076;113.488;2023-05-07T00:23:59;11.80;34.95
60242;SHT30;46103;52.076;113.488;2023-05-07T00:27:04;12.06;34.64
60242;SHT30;46103;52.076;113.488;2023-05-07T00:30:08;12.31;34.36
60242;SHT30;46103;52.076;113.488;2023-05-07T00:33:14;12.51;34.15
60242;SHT30;46103;52.076;113.488;2023-05-07T00:36:18;12.82;33.56
60242;SHT30;46103;52.076;113.488;2023-05-07T00:39:22;13.09;33.51
60242;SHT30;46103;52.076;113.488;2023-05-07T00:42:26;13.36;33.12
60242;SHT30;46103;52.076;113.488;2023-05-07T00:45:33;13.64;32.84
60242;SHT30;46103;52.076;113.488;2023-05-07T00:48:38;13.76;32.80
60242;SHT30;46103;52.076;113.488;2023-05-07T00:51:42;13.71;33.14
60242;SHT30;46103;52.076;113.488;2023-05-07T00:54:47;13.85;33.16
60242;SHT30;46103;52.076;113.488;2023-05-07T00:57:51;14.19;32.53
60242;SHT30;46103;52.076;113.488;2023-05-07T01:00:56;14.20;32.53
60242;SHT30;46103;52.076;113.488;2023-05-07T01:04:01;14.24;32.69
60242;SHT30;46103;52.076;113.488;2023-05-07T01:07:07;14.47;32.81
60242;SHT30;46103;52.076;113.488;2023-05-07T01:10:11;14.57;33.20
60242;SHT30;46103;52.076;113.488;2023-05-07T01:13:17;14.45;33.64
60242;SHT30;46103;52.076;113.488;2023-05-07T01:16:25;14.60;34.10
60242;SHT30;46103;52.076;113.488;2023-05-07T01:19:29;14.85;34.10
60242;SHT30;46103;52.076;113.488;2023-05-07T01:22:35;15.30;33.91
60242;SHT30;46103;52.076;113.488;2023-05-07T01:25:54;15.50;34.59
60242;SHT30;46103;52.076;113.488;2023-05-07T01:29:00;15.57;34.69
60242;SHT30;46103;52.076;113.488;2023-05-07T01:32:05;15.77;34.64
60242;SHT30;46103;52.076;113.488;2023-05-07T01:35:14;15.55;35.42
60242;SHT30;46103;52.076;113.488;2023-05-07T01:38:21;15.47;35.65
60242;SHT30;46103;52.076;113.488;2023-05-07T01:41:26;15.29;35.92
60242;SHT30;46103;52.076;113.488;2023-05-07T01:44:30;15.57;35.50
60242;SHT30;46103;52.076;113.488;2023-05-07T01:47:34;15.67;35.43
60242;SHT30;46103;52.076;113.488;2023-05-07T01:50:39;15.58;35.41
60242;SHT30;46103;52.076;113.488;2023-05-07T01:53:43;15.78;35.21
60242;SHT30;46103;52.076;113.488;2023-05-07T01:56:49;16.32;34.36
60242;SHT30;46103;52.076;113.488;2023-05-07T01:59:56;16.29;34.45
60242;SHT30;46103;52.076;113.488;2023-05-07T02:03:00;16.36;34.26
60242;SHT30;46103;52.076;113.488;2023-05-07T02:06:21;16.30;34.31
60242;SHT30;46103;52.076;113.488;2023-05-07T02:09:26;16.55;34.00
60242;SHT30;46103;52.076;113.488;2023-05-07T02:12:30;16.88;33.42
60242;SHT30;46103;52.076;113.488;2023-05-07T02:15:34;16.81;33.65
60242;SHT30;46103;52.076;113.488;2023-05-07T02:18:38;16.95;33.38
60242;SHT30;46103;52.076;113.488;2023-05-07T02:21:43;17.02;33.44
60242;SHT30;46103;52.076;113.488;2023-05-07T02:24:47;16.85;33.56
60242;SHT30;46103;52.076;113.488;2023-05-07T02:28:06;16.46;34.08
60242;SHT30;46103;52.076;113.488;2023-05-07T02:31:19;16.20;34.62
60242;SHT30;46103;52.076;113.488;2023-05-07T02:34:24;16.10;34.50
60242;SHT30;46103;52.076;113.488;2023-05-07T02:37:27;15.85;34.65
60242;SHT30;46103;52.076;113.488;2023-05-07T02:40:32;15.97;34.77
60242;SHT30;46103;52.076;113.488;2023-05-07T02:43:36;15.97;34.34
60242;SHT30;46103;52.076;113.488;2023-05-07T02:46:41;16.06;33.77
60242;SHT30;46103;52.076;113.488;2023-05-07T02:49:47;16.12;33.49
60242;SHT30;46103;52.076;113.488;2023-05-07T02:52:51;16.12;33.67
60242;SHT30;46103;52.076;113.488;2023-05-07T02:55:56;16.30;33.44
60242;SHT30;46103;52.076;113.488;2023-05-07T02:59:00;16.61;33.07
60242;SHT30;46103;52.076;113.488;2023-05-07T03:02:08;16.98;32.85
60242;SHT30;46103;52.076;113.488;2023-05-07T03:05:12;17.19;32.29
60242;SHT30;46103;52.076;113.488;2023-05-07T03:08:17;17.00;32.66
60242;SHT30;46103;52.076;113.488;2023-05-07T03:11:21;16.85;33.10
60242;SHT30;46103;52.076;113.488;2023-05-07T03:14:25;16.92;33.04
60242;SHT30;46103;52.076;113.488;2023-05-07T03:17:29;16.88;33.00
60242;SHT30;46103;52.076;113.488;2023-05-07T03:20:33;16.87;32.98
60242;SHT30;46103;52.076;113.488;2023-05-07T03:23:37;16.91;33.06
60242;SHT30;46103;52.076;113.488;2023-05-07T03:26:42;16.77;33.81
60242;SHT30;46103;52.076;113.488;2023-05-07T03:29:46;16.60;33.36
60242;SHT30;46103;52.076;113.488;2023-05-07T03:32:50;16.63;33.38
60242;SHT30;46103;52.076;113.488;2023-05-07T03:35:54;16.59;33.04
60242;SHT30;46103;52.076;113.488;2023-05-07T03:39:01;16.59;33.11
60242;SHT30;46103;52.076;113.488;2023-05-07T03:42:11;16.56;33.07
60242;SHT30;46103;52.076;113.488;2023-05-07T03:45:15;16.56;33.18
60242;SHT30;46103;52.076;113.488;2023-05-07T03:48:25;16.68;33.03
60242;SHT30;46103;52.076;113.488;2023-05-07T03:51:31;16.84;32.30
60242;SHT30;46103;52.076;113.488;2023-05-07T03:54:40;16.81;32.04
60242;SHT30;46103;52.076;113.488;2023-05-07T03:57:49;16.85;31.58
60242;SHT30;46103;52.076;113.488;2023-05-07T04:00:54;16.98;31.55
60242;SHT30;46103;52.076;113.488;2023-05-07T04:04:01;17.32;30.88
60242;SHT30;46103;52.076;113.488;2023-05-07T04:07:09;17.51;30.36
60242;SHT30;46103;52.076;113.488;2023-05-07T04:10:17;17.66;29.96
60242;SHT30;46103;52.076;113.488;2023-05-07T04:13:24;17.97;29.67
60242;SHT30;46103;52.076;113.488;2023-05-07T04:16:29;17.84;28.60
60242;SHT30;46103;52.076;113.488;2023-05-07T04:19:33;17.59;29.46
60242;SHT30;46103;52.076;113.488;2023-05-07T04:22:37;17.51;29.74
60242;SHT30;46103;52.076;113.488;2023-05-07T04:25:41;17.43;29.45
60242;SHT30;46103;52.076;113.488;2023-05-07T04:28:52;17.26;29.53
60242;SHT30;46103;52.076;113.488;2023-05-07T04:31:56;17.53;29.31
60242;SHT30;46103;52.076;113.488;2023-05-07T04:35:02;17.96;28.06
60242;SHT30;46103;52.076;113.488;2023-05-07T04:38:06;17.96;27.51
60242;SHT30;46103;52.076;113.488;2023-05-07T04:41:12;17.93;27.35
60242;SHT30;46103;52.076;113.488;2023-05-07T04:44:17;18.01;26.70
60242;SHT30;46103;52.076;113.488;2023-05-07T04:47:22;17.80;27.88
60242;SHT30;46103;52.076;113.488;2023-05-07T04:50:26;17.78;27.92
60242;SHT30;46103;52.076;113.488;2023-05-07T04:53:34;17.63;27.18
60242;SHT30;46103;52.076;113.488;2023-05-07T04:56:39;17.51;27.66
60242;SHT30;46103;52.076;113.488;2023-05-07T04:59:44;17.54;27.43
60242;SHT30;46103;52.076;113.488;2023-05-07T05:02:48;17.53;27.58
60242;SHT30;46103;52.076;113.488;2023-05-07T05:05:55;17.73;26.99
60242;SHT30;46103;52.076;113.488;2023-05-07T05:09:03;18.07;26.70
60242;SHT30;46103;52.076;113.488;2023-05-07T05:12:09;17.90;25.77
60242;SHT30;46103;52.076;113.488;2023-05-07T05:15:13;17.73;26.44
60242;SHT30;46103;52.076;113.488;2023-05-07T05:18:17;17.71;25.42
60242;SHT30;46103;52.076;113.488;2023-05-07T05:21:21;17.76;25.07
60242;SHT30;46103;52.076;113.488;2023-05-07T05:24:29;17.97;24.11
60242;SHT30;46103;52.076;113.488;2023-05-07T05:27:35;17.90;22.99
60242;SHT30;46103;52.076;113.488;2023-05-07T05:30:39;18.00;21.00
60242;SHT30;46103;52.076;113.488;2023-05-07T05:33:44;18.11;21.38
60242;SHT30;46103;52.076;113.488;2023-05-07T05:36:48;18.08;21.71
60242;SHT30;46103;52.076;113.488;2023-05-07T05:39:53;18.04;21.03
60242;SHT30;46103;52.076;113.488;2023-05-07T05:43:00;17.94;21.60
60242;SHT30;46103;52.076;113.488;2023-05-07T05:46:04;18.12;21.78
60242;SHT30;46103;52.076;113.488;2023-05-07T05:49:08;18.21;21.56
60242;SHT30;46103;52.076;113.488;2023-05-07T05:52:13;18.18;21.34
60242;SHT30;46103;52.076;113.488;2023-05-07T05:55:17;18.39;21.30
60242;SHT30;46103;52.076;113.488;2023-05-07T05:58:22;18.53;21.59
60242;SHT30;46103;52.076;113.488;2023-05-07T06:01:31;18.73;21.96
60242;SHT30;46103;52.076;113.488;2023-05-07T06:04:37;18.97;21.00
60242;SHT30;46103;52.076;113.488;2023-05-07T06:07:44;18.64;20.76
60242;SHT30;46103;52.076;113.488;2023-05-07T06:10:48;18.51;21.70
60242;SHT30;46103;52.076;113.488;2023-05-07T06:13:53;18.39;22.20
60242;SHT30;46103;52.076;113.488;2023-05-07T06:16:57;18.16;22.48
60242;SHT30;46103;52.076;113.488;2023-05-07T06:20:01;18.29;22.35
60242;SHT30;46103;52.076;113.488;2023-05-07T06:23:04;18.39;22.32
60242;SHT30;46103;52.076;113.488;2023-05-07T06:26:08;18.55;21.22
60242;SHT30;46103;52.076;113.488;2023-05-07T06:29:16;18.74;21.05
60242;SHT30;46103;52.076;113.488;2023-05-07T06:32:20;18.63;20.76
60242;SHT30;46103;52.076;113.488;2023-05-07T06:35:25;18.66;21.57
60242;SHT30;46103;52.076;113.488;2023-05-07T06:38:29;18.86;21.69
60242;SHT30;46103;52.076;113.488;2023-05-07T06:41:32;19.19;20.89
60242;SHT30;46103;52.076;113.488;2023-05-07T06:44:42;19.44;20.82
60242;SHT30;46103;52.076;113.488;2023-05-07T06:47:48;19.21;21.42
60242;SHT30;46103;52.076;113.488;2023-05-07T06:50:52;19.35;19.77
60242;SHT30;46103;52.076;113.488;2023-05-07T06:53:59;19.67;19.19
60242;SHT30;46103;52.076;113.488;2023-05-07T06:57:04;20.01;18.45
60242;SHT30;46103;52.076;113.488;2023-05-07T07:00:08;20.56;18.07
60242;SHT30;46103;52.076;113.488;2023-05-07T07:03:24;20.47;17.92
60242;SHT30;46103;52.076;113.488;2023-05-07T07:06:30;20.38;18.15
60242;SHT30;46103;52.076;113.488;2023-05-07T07:09:38;20.79;18.02
60242;SHT30;46103;52.076;113.488;2023-05-07T07:12:43;21.03;17.46
60242;SHT30;46103;52.076;113.488;2023-05-07T07:15:47;20.89;17.49
60242;SHT30;46103;52.076;113.488;2023-05-07T07:18:52;21.26;17.07
60242;SHT30;46103;52.076;113.488;2023-05-07T07:21:56;20.92;17.11
60242;SHT30;46103;52.076;113.488;2023-05-07T07:25:00;21.07;16.53
60242;SHT30;46103;52.076;113.488;2023-05-07T07:28:05;21.16;16.11
60242;SHT30;46103;52.076;113.488;2023-05-07T07:31:12;21.22;16.27
60242;SHT30;46103;52.076;113.488;2023-05-07T07:34:16;21.31;16.27
60242;SHT30;46103;52.076;113.488;2023-05-07T07:37:20;21.30;16.27
60242;SHT30;46103;52.076;113.488;2023-05-07T07:40:24;21.31;16.05
60242;SHT30;46103;52.076;113.488;2023-05-07T07:43:28;21.13;15.93
60242;SHT30;46103;52.076;113.488;2023-05-07T07:46:33;21.20;16.20
60242;SHT30;46103;52.076;113.488;2023-05-07T07:49:37;21.31;16.56
60242;SHT30;46103;52.076;113.488;2023-05-07T07:52:43;21.35;16.35
60242;SHT30;46103;52.076;113.488;2023-05-07T07:55:50;21.33;16.57
60242;SHT30;46103;52.076;113.488;2023-05-07T07:59:02;21.51;16.37
60242;SHT30;46103;52.076;113.488;2023-05-07T08:02:07;22.06;15.43
60242;SHT30;46103;52.076;113.488;2023-05-07T08:05:11;22.14;15.99
60242;SHT30;46103;52.076;113.488;2023-05-07T08:08:15;22.09;16.08
60242;SHT30;46103;52.076;113.488;2023-05-07T08:11:20;21.96;15.68
60242;SHT30;46103;52.076;113.488;2023-05-07T08:14:26;21.98;16.00
60242;SHT30;46103;52.076;113.488;2023-05-07T08:17:31;22.17;15.49
60242;SHT30;46103;52.076;113.488;2023-05-07T08:20:36;22.17;15.57
60242;SHT30;46103;52.076;113.488;2023-05-07T08:23:46;22.20;15.39
60242;SHT30;46103;52.076;113.488;2023-05-07T08:26:50;22.57;15.19
60242;SHT30;46103;52.076;113.488;2023-05-07T08:29:54;22.84;14.86
60242;SHT30;46103;52.076;113.488;2023-05-07T08:32:58;23.18;14.48
60242;SHT30;46103;52.076;113.488;2023-05-07T08:36:02;23.16;14.57
60242;SHT30;46103;52.076;113.488;2023-05-07T08:39:06;23.67;13.21
60242;SHT30;46103;52.076;113.488;2023-05-07T08:42:11;22.79;13.28
60242;SHT30;46103;52.076;113.488;2023-05-07T08:45:18;22.94;13.36
60242;SHT30;46103;52.076;113.488;2023-05-07T08:48:25;23.27;13.44
60242;SHT30;46103;52.076;113.488;2023-05-07T08:51:38;22.96;13.50
60242;SHT30;46103;52.076;113.488;2023-05-07T08:54:43;22.95;13.11
60242;SHT30;46103;52.076;113.488;2023-05-07T08:57:47;22.81;13.39
60242;SHT30;46103;52.076;113.488;2023-05-07T09:00:52;22.16;13.55
60242;SHT30;46103;52.076;113.488;2023-05-07T09:03:58;22.10;13.45
60242;SHT30;46103;52.076;113.488;2023-05-07T09:07:04;22.12;13.38
60242;SHT30;46103;52.076;113.488;2023-05-07T09:10:13;22.39;13.21
60242;SHT30;46103;52.076;113.488;2023-05-07T09:13:20;22.43;13.61
60242;SHT30;46103;52.076;113.488;2023-05-07T09:16:25;22.96;13.50
60242;SHT30;46103;52.076;113.488;2023-05-07T09:19:30;22.76;13.35
60242;SHT30;46103;52.076;113.488;2023-05-07T09:22:37;22.76;13.33
60242;SHT30;46103;52.076;113.488;2023-05-07T09:25:45;21.93;12.83
60242;SHT30;46103;52.076;113.488;2023-05-07T09:28:56;21.47;12.95
60242;SHT30;46103;52.076;113.488;2023-05-07T09:32:04;21.57;13.62
60242;SHT30;46103;52.076;113.488;2023-05-07T09:35:16;22.85;12.42
60242;SHT30;46103;52.076;113.488;2023-05-07T09:38:26;22.09;12.41
60242;SHT30;46103;52.076;113.488;2023-05-07T09:41:43;21.78;12.49
60242;SHT30;46103;52.076;113.488;2023-05-07T09:44:54;21.74;12.85
60242;SHT30;46103;52.076;113.488;2023-05-07T09:48:02;21.61;12.86
60242;SHT30;46103;52.076;113.488;2023-05-07T09:51:25;21.83;12.48
60242;SHT30;46103;52.076;113.488;2023-05-07T09:54:33;21.72;12.38
60242;SHT30;46103;52.076;113.488;2023-05-07T09:57:38;22.39;12.57
60242;SHT30;46103;52.076;113.488;2023-05-07T10:00:43;22.24;13.02
60242;SHT30;46103;52.076;113.488;2023-05-07T10:03:50;22.74;12.80
60242;SHT30;46103;52.076;113.488;2023-05-07T10:06:55;22.43;12.77
60242;SHT30;46103;52.076;113.488;2023-05-07T10:10:03;22.36;12.89
60242;SHT30;46103;52.076;113.488;2023-05-07T10:13:12;22.53;13.59
60242;SHT30;46103;52.076;113.488;2023-05-07T10:16:21;22.40;13.42
60242;SHT30;46103;52.076;113.488;2023-05-07T10:19:29;22.33;13.75
60242;SHT30;46103;52.076;113.488;2023-05-07T10:22:41;22.92;13.74
60242;SHT30;46103;52.076;113.488;2023-05-07T10:25:48;22.41;14.11
60242;SHT30;46103;52.076;113.488;2023-05-07T10:29:18;22.39;14.31
60242;SHT30;46103;52.076;113.488;2023-05-07T10:35:41;22.02;14.84
60242;SHT30;46103;52.076;113.488;2023-05-07T10:38:47;21.48;12.44
60242;SHT30;46103;52.076;113.488;2023-05-07T10:41:51;21.38;12.31
60242;SHT30;46103;52.076;113.488;2023-05-07T10:44:57;21.48;12.45
60242;SHT30;46103;52.076;113.488;2023-05-07T10:48:15;22.00;11.50
60242;SHT30;46103;52.076;113.488;2023-05-07T10:51:41;22.08;11.54
60242;SHT30;46103;52.076;113.488;2023-05-07T10:58:40;21.63;11.66
60242;SHT30;46103;52.076;113.488;2023-05-07T11:02:04;19.29;12.27
60242;SHT30;46103;52.076;113.488;2023-05-07T11:05:25;19.36;12.86
60242;SHT30;46103;52.076;113.488;2023-05-07T11:12:03;18.24;12.98
60242;SHT30;46103;52.076;113.488;2023-05-07T11:15:38;18.24;12.86
60242;SHT30;46103;52.076;113.488;2023-05-07T11:18:56;17.81;12.67
60242;SHT30;46103;52.076;113.488;2023-05-07T11:26:07;17.67;13.04
60242;SHT30;46103;52.076;113.488;2023-05-07T11:29:12;17.25;13.29
60242;SHT30;46103;52.076;113.488;2023-05-07T11:32:30;16.94;13.44
60242;SHT30;46103;52.076;113.488;2023-05-07T11:35:36;16.80;13.45
60242;SHT30;46103;52.076;113.488;2023-05-07T11:38:43;16.78;13.48
60242;SHT30;46103;52.076;113.488;2023-05-07T11:41:47;16.30;13.72
60242;SHT30;46103;52.076;113.488;2023-05-07T11:44:52;15.65;14.03
60242;SHT30;46103;52.076;113.488;2023-05-07T11:47:55;15.13;14.48
60242;SHT30;46103;52.076;113.488;2023-05-07T11:51:00;13.87;15.29
60242;SHT30;46103;52.076;113.488;2023-05-07T11:54:04;13.03;16.06
60242;SHT30;46103;52.076;113.488;2023-05-07T11:57:14;12.34;16.76
60242;SHT30;46103;52.076;113.488;2023-05-07T12:00:17;11.89;17.18
60242;SHT30;46103;52.076;113.488;2023-05-07T12:03:21;11.65;17.54
60242;SHT30;46103;52.076;113.488;2023-05-07T12:06:24;11.45;17.77
60242;SHT30;46103;52.076;113.488;2023-05-07T12:09:28;11.35;18.05
60242;SHT30;46103;52.076;113.488;2023-05-07T12:12:38;11.15;18.36
60242;SHT30;46103;52.076;113.488;2023-05-07T12:15:52;10.94;18.71
60242;SHT30;46103;52.076;113.488;2023-05-07T12:19:21;10.81;19.08
60242;SHT30;46103;52.076;113.488;2023-05-07T12:22:25;10.66;19.42
60242;SHT30;46103;52.076;113.488;2023-05-07T12:25:35;10.56;19.73
60242;SHT30;46103;52.076;113.488;2023-05-07T12:28:38;10.39;19.93
60242;SHT30;46103;52.076;113.488;2023-05-07T12:31:42;10.29;20.05
60242;SHT30;46103;52.076;113.488;2023-05-07T12:34:49;10.18;20.22
60242;SHT30;46103;52.076;113.488;2023-05-07T12:37:55;10.07;20.48
60242;SHT30;46103;52.076;113.488;2023-05-07T12:40:59;9.91;20.80
60242;SHT30;46103;52.076;113.488;2023-05-07T12:44:04;9.89;20.98
60242;SHT30;46103;52.076;113.488;2023-05-07T12:47:08;9.83;21.03
60242;SHT30;46103;52.076;113.488;2023-05-07T12:50:11;9.73;21.23
60242;SHT30;46103;52.076;113.488;2023-05-07T12:53:15;9.69;21.45
60242;SHT30;46103;52.076;113.488;2023-05-07T12:56:18;9.59;21.67
60242;SHT30;46103;52.076;113.488;2023-05-07T12:59:34;9.54;22.17
60242;SHT30;46103;52.076;113.488;2023-05-07T13:02:41;9.46;22.48
60242;SHT30;46103;52.076;113.488;2023-05-07T13:05:47;9.38;22.36
60242;SHT30;46103;52.076;113.488;2023-05-07T13:08:50;9.25;22.68
60242;SHT30;46103;52.076;113.488;2023-05-07T13:11:54;9.22;22.96
60242;SHT30;46103;52.076;113.488;2023-05-07T13:14:57;9.18;23.24
60242;SHT30;46103;52.076;113.488;2023-05-07T13:18:00;9.10;23.64
60242;SHT30;46103;52.076;113.488;2023-05-07T13:21:04;9.03;23.72
60242;SHT30;46103;52.076;113.488;2023-05-07T13:24:07;8.88;23.94
60242;SHT30;46103;52.076;113.488;2023-05-07T13:27:11;8.77;23.95
60242;SHT30;46103;52.076;113.488;2023-05-07T13:30:14;8.67;23.96
60242;SHT30;46103;52.076;113.488;2023-05-07T13:33:18;8.66;24.11
60242;SHT30;46103;52.076;113.488;2023-05-07T13:36:21;8.54;24.17
60242;SHT30;46103;52.076;113.488;2023-05-07T13:39:25;8.45;24.18
60242;SHT30;46103;52.076;113.488;2023-05-07T13:42:29;8.40;24.23
60242;SHT30;46103;52.076;113.488;2023-05-07T13:45:32;8.35;24.35
60242;SHT30;46103;52.076;113.488;2023-05-07T13:48:35;8.26;24.43
60242;SHT30;46103;52.076;113.488;2023-05-07T13:51:38;8.19;24.60
60242;SHT30;46103;52.076;113.488;2023-05-07T13:54:42;8.11;24.78
60242;SHT30;46103;52.076;113.488;2023-05-07T13:57:46;8.02;24.87
60242;SHT30;46103;52.076;113.488;2023-05-07T14:00:49;7.94;24.94
60242;SHT30;46103;52.076;113.488;2023-05-07T14:03:53;7.91;24.96
60242;SHT30;46103;52.076;113.488;2023-05-07T14:06:56;7.85;25.08
60242;SHT30;46103;52.076;113.488;2023-05-07T14:09:59;7.80;25.06
60242;SHT30;46103;52.076;113.488;2023-05-07T14:13:04;7.77;25.16
60242;SHT30;46103;52.076;113.488;2023-05-07T14:16:08;7.71;25.21
60242;SHT30;46103;52.076;113.488;2023-05-07T14:19:12;7.67;25.12
60242;SHT30;46103;52.076;113.488;2023-05-07T14:22:16;7.59;25.41
60242;SHT30;46103;52.076;113.488;2023-05-07T14:25:20;7.53;25.55
60242;SHT30;46103;52.076;113.488;2023-05-07T14:28:25;7.47;25.79
60242;SHT30;46103;52.076;113.488;2023-05-07T14:31:28;7.45;25.94
60242;SHT30;46103;52.076;113.488;2023-05-07T14:34:32;7.42;25.43
60242;SHT30;46103;52.076;113.488;2023-05-07T14:37:35;7.40;25.60
60242;SHT30;46103;52.076;113.488;2023-05-07T14:40:38;7.39;25.51
60242;SHT30;46103;52.076;113.488;2023-05-07T14:43:41;7.35;25.65
60242;SHT30;46103;52.076;113.488;2023-05-07T14:46:45;7.28;25.70
60242;SHT30;46103;52.076;113.488;2023-05-07T14:49:49;7.26;25.62
60242;SHT30;46103;52.076;113.488;2023-05-07T14:52:52;7.19;25.72
60242;SHT30;46103;52.076;113.488;2023-05-07T14:55:55;7.11;25.87
60242;SHT30;46103;52.076;113.488;2023-05-07T14:58:58;7.08;26.02
60242;SHT30;46103;52.076;113.488;2023-05-07T15:02:03;7.04;26.04
60242;SHT30;46103;52.076;113.488;2023-05-07T15:05:08;7.02;26.07
60242;SHT30;46103;52.076;113.488;2023-05-07T15:08:13;6.98;26.17
60242;SHT30;46103;52.076;113.488;2023-05-07T15:11:17;6.92;26.33
60242;SHT30;46103;52.076;113.488;2023-05-07T15:14:21;6.84;26.55
60242;SHT30;46103;52.076;113.488;2023-05-07T15:17:25;6.77;26.67
60242;SHT30;46103;52.076;113.488;2023-05-07T15:20:29;6.76;26.60
60242;SHT30;46103;52.076;113.488;2023-05-07T15:23:32;6.69;26.69
60242;SHT30;46103;52.076;113.488;2023-05-07T15:26:36;6.61;26.81
60242;SHT30;46103;52.076;113.488;2023-05-07T15:29:39;6.56;26.97
60242;SHT30;46103;52.076;113.488;2023-05-07T15:32:43;6.49;27.03
60242;SHT30;46103;52.076;113.488;2023-05-07T15:35:47;6.39;27.09
60242;SHT30;46103;52.076;113.488;2023-05-07T15:38:51;6.34;27.31
60242;SHT30;46103;52.076;113.488;2023-05-07T15:41:56;6.26;27.52
60242;SHT30;46103;52.076;113.488;2023-05-07T15:44:59;6.18;27.63
60242;SHT30;46103;52.076;113.488;2023-05-07T15:48:05;6.11;27.77
60242;SHT30;46103;52.076;113.488;2023-05-07T15:51:08;6.06;27.52
60242;SHT30;46103;52.076;113.488;2023-05-07T15:54:13;5.95;27.86
60242;SHT30;46103;52.076;113.488;2023-05-07T15:57:16;5.88;27.55
60242;SHT30;46103;52.076;113.488;2023-05-07T16:00:20;5.88;27.92
60242;SHT30;46103;52.076;113.488;2023-05-07T16:03:24;5.78;28.36
60242;SHT30;46103;52.076;113.488;2023-05-07T16:06:29;5.71;28.33
60242;SHT30;46103;52.076;113.488;2023-05-07T16:09:33;5.56;28.66
60242;SHT30;46103;52.076;113.488;2023-05-07T16:12:36;5.44;28.79
60242;SHT30;46103;52.076;113.488;2023-05-07T16:15:39;5.35;28.84
60242;SHT30;46103;52.076;113.488;2023-05-07T16:18:43;5.25;29.29
60242;SHT30;46103;52.076;113.488;2023-05-07T16:21:47;5.25;29.22
60242;SHT30;46103;52.076;113.488;2023-05-07T16:24:51;5.13;29.55
60242;SHT30;46103;52.076;113.488;2023-05-07T16:27:55;5.09;29.46
60242;SHT30;46103;52.076;113.488;2023-05-07T16:30:59;5.04;29.94
60242;SHT30;46103;52.076;113.488;2023-05-07T16:34:03;4.93;30.03
60242;SHT30;46103;52.076;113.488;2023-05-07T16:37:07;4.89;30.03
60242;SHT30;46103;52.076;113.488;2023-05-07T16:40:11;4.88;30.16
60242;SHT30;46103;52.076;113.488;2023-05-07T16:43:15;4.81;30.43
60242;SHT30;46103;52.076;113.488;2023-05-07T16:46:19;4.77;30.45
60242;SHT30;46103;52.076;113.488;2023-05-07T16:49:25;4.70;30.53
60242;SHT30;46103;52.076;113.488;2023-05-07T16:52:28;4.71;30.47
60242;SHT30;46103;52.076;113.488;2023-05-07T16:55:37;4.67;30.70
60242;SHT30;46103;52.076;113.488;2023-05-07T16:58:41;4.64;30.65
60242;SHT30;46103;52.076;113.488;2023-05-07T17:01:44;4.58;30.85
60242;SHT30;46103;52.076;113.488;2023-05-07T17:04:48;4.54;30.68
60242;SHT30;46103;52.076;113.488;2023-05-07T17:07:52;4.52;30.93
60242;SHT30;46103;52.076;113.488;2023-05-07T17:10:57;4.47;30.95
60242;SHT30;46103;52.076;113.488;2023-05-07T17:14:01;4.47;30.72
60242;SHT30;46103;52.076;113.488;2023-05-07T17:17:07;4.44;30.87
60242;SHT30;46103;52.076;113.488;2023-05-07T17:20:11;4.43;30.95
60242;SHT30;46103;52.076;113.488;2023-05-07T17:23:16;4.40;30.92
60242;SHT30;46103;52.076;113.488;2023-05-07T17:26:20;4.33;31.20
60242;SHT30;46103;52.076;113.488;2023-05-07T17:29:24;4.30;31.26
60242;SHT30;46103;52.076;113.488;2023-05-07T17:32:28;4.25;31.29
60242;SHT30;46103;52.076;113.488;2023-05-07T17:35:32;4.20;31.35
60242;SHT30;46103;52.076;113.488;2023-05-07T17:38:36;4.09;31.52
60242;SHT30;46103;52.076;113.488;2023-05-07T17:41:40;4.03;31.83
60242;SHT30;46103;52.076;113.488;2023-05-07T17:44:44;3.91;31.89
60242;SHT30;46103;52.076;113.488;2023-05-07T17:47:47;3.85;31.88
60242;SHT30;46103;52.076;113.488;2023-05-07T17:50:51;3.78;31.88
60242;SHT30;46103;52.076;113.488;2023-05-07T17:53:55;3.78;32.26
60242;SHT30;46103;52.076;113.488;2023-05-07T17:56:59;3.70;32.66
60242;SHT30;46103;52.076;113.488;2023-05-07T18:00:03;3.63;32.70
60242;SHT30;46103;52.076;113.488;2023-05-07T18:03:10;3.56;32.71
60242;SHT30;46103;52.076;113.488;2023-05-07T18:06:13;3.50;32.80
60242;SHT30;46103;52.076;113.488;2023-05-07T18:09:21;3.44;33.12
60242;SHT30;46103;52.076;113.488;2023-05-07T18:12:24;3.44;33.13
60242;SHT30;46103;52.076;113.488;2023-05-07T18:15:29;3.34;33.30
60242;SHT30;46103;52.076;113.488;2023-05-07T18:18:33;3.36;33.18
60242;SHT30;46103;52.076;113.488;2023-05-07T18:21:37;3.34;33.46
60242;SHT30;46103;52.076;113.488;2023-05-07T18:24:41;3.34;33.04
60242;SHT30;46103;52.076;113.488;2023-05-07T18:27:45;3.39;32.89
60242;SHT30;46103;52.076;113.488;2023-05-07T18:30:49;3.43;33.09
60242;SHT30;46103;52.076;113.488;2023-05-07T18:33:53;3.44;32.87
60242;SHT30;46103;52.076;113.488;2023-05-07T18:36:58;3.49;32.86
60242;SHT30;46103;52.076;113.488;2023-05-07T18:40:01;3.49;32.89
60242;SHT30;46103;52.076;113.488;2023-05-07T18:43:06;3.53;32.69
60242;SHT30;46103;52.076;113.488;2023-05-07T18:46:11;3.50;33.65
60242;SHT30;46103;52.076;113.488;2023-05-07T18:49:14;3.39;33.62
60242;SHT30;46103;52.076;113.488;2023-05-07T18:52:18;3.31;33.58
60242;SHT30;46103;52.076;113.488;2023-05-07T18:55:24;3.31;33.46
60242;SHT30;46103;52.076;113.488;2023-05-07T18:58:28;3.37;33.29
60242;SHT30;46103;52.076;113.488;2023-05-07T19:01:32;3.43;32.94
60242;SHT30;46103;52.076;113.488;2023-05-07T19:04:35;3.49;32.83
60242;SHT30;46103;52.076;113.488;2023-05-07T19:07:39;3.47;32.96
60242;SHT30;46103;52.076;113.488;2023-05-07T19:10:43;3.50;33.34
60242;SHT30;46103;52.076;113.488;2023-05-07T19:13:47;3.51;33.20
60242;SHT30;46103;52.076;113.488;2023-05-07T19:16:51;3.50;33.48
60242;SHT30;46103;52.076;113.488;2023-05-07T19:19:55;3.41;34.50